createdAt,value
2022-12-24T00:00:00.758Z,20.52
2022-12-24T00:02:28.062Z,20.50
2022-12-24T00:05:00.562Z,19.85
2022-12-24T00:07:44.196Z,20.40
2022-12-24T00:10:11.583Z,20.77
2022-12-24T00:12:38.744Z,21.75
2022-12-24T00:15:06.519Z,20.42
2022-12-24T00:17:33.619Z,19.77
2022-12-24T00:20:00.841Z,22.38
2022-12-24T00:22:28.067Z,19.80
2022-12-24T00:24:55.227Z,20.63
2022-12-24T00:27:22.358Z,19.17
2022-12-24T00:29:49.431Z,18.50
2022-12-24T00:32:16.460Z,18.23
2022-12-24T00:34:43.491Z,20.73
2022-12-24T00:37:10.522Z,19.30
2022-12-24T00:39:37.597Z,21.08
2022-12-24T00:42:04.711Z,20.48
2022-12-24T00:44:31.788Z,22.10
2022-12-24T00:46:58.921Z,21.92
2022-12-24T00:49:25.990Z,20.27
2022-12-24T00:51:53.089Z,19.88
2022-12-24T00:54:20.243Z,19.98
2022-12-24T00:56:47.271Z,20.27
2022-12-24T00:59:14.297Z,21.33
2022-12-24T01:01:41.535Z,22.35
2022-12-24T01:04:27.413Z,21.08
2022-12-24T01:06:54.469Z,21.27
2022-12-24T01:09:21.539Z,21.30
2022-12-24T01:11:48.621Z,21.08
2022-12-24T01:14:15.740Z,22.15
2022-12-24T01:16:42.867Z,21.15
2022-12-24T01:19:10.779Z,21.85
2022-12-24T01:21:37.833Z,21.05
2022-12-24T01:24:05.028Z,20.77
2022-12-24T01:26:32.186Z,22.30
2022-12-24T01:29:00.369Z,21.38
2022-12-24T01:31:27.612Z,21.38
2022-12-24T01:33:54.706Z,21.67
2022-12-24T01:36:21.738Z,21.13
2022-12-24T01:38:48.779Z,21.95
2022-12-24T01:41:35.822Z,21.35
2022-12-24T01:44:22.746Z,20.58
2022-12-24T01:46:51.228Z,22.17
2022-12-24T01:49:18.928Z,21.85
2022-12-24T01:51:56.816Z,22.40
2022-12-24T01:54:23.951Z,21.30
2022-12-24T01:56:53.886Z,20.05
2022-12-24T01:59:21.909Z,22.52
2022-12-24T02:01:50.498Z,21.27
2022-12-24T02:04:26.118Z,21.80
2022-12-24T02:06:53.176Z,19.90
2022-12-24T02:09:20.439Z,22.63
2022-12-24T02:11:47.865Z,21.42
2022-12-24T02:14:16.608Z,20.75
2022-12-24T02:16:53.256Z,21.27
2022-12-24T02:19:32.641Z,21.65
2022-12-24T02:22:05.659Z,22.08
2022-12-24T02:24:32.693Z,20.88
2022-12-24T02:27:12.697Z,21.45
2022-12-24T02:29:52.013Z,21.25
2022-12-24T02:32:19.068Z,22.17
2022-12-24T02:34:48.440Z,22.42
2022-12-24T02:37:30.729Z,22.65
2022-12-24T02:40:02.171Z,21.85
2022-12-24T02:42:32.825Z,22.02
2022-12-24T02:45:03.307Z,21.58
2022-12-24T02:47:34.047Z,19.83
2022-12-24T02:50:02.732Z,20.58
2022-12-24T02:52:36.914Z,23.08
2022-12-24T02:55:12.859Z,20.88
2022-12-24T02:57:58.293Z,20.15
2022-12-24T03:00:25.782Z,22.15
2022-12-24T03:02:56.066Z,22.75
2022-12-24T03:05:34.802Z,23.88
2022-12-24T03:08:04.882Z,23.80
2022-12-24T03:10:43.009Z,24.17
2022-12-24T03:13:13.610Z,26.77
2022-12-24T03:15:40.716Z,25.75
2022-12-24T03:18:09.163Z,26.10
2022-12-24T03:20:41.637Z,26.23
2022-12-24T03:23:09.078Z,25.45
2022-12-24T03:25:39.331Z,26.10
2022-12-24T03:28:07.089Z,24.63
2022-12-24T03:30:35.308Z,26.55
2022-12-24T03:33:02.418Z,25.83
2022-12-24T03:35:29.455Z,25.83
2022-12-24T03:37:56.789Z,25.92
2022-12-24T03:40:23.863Z,27.38
2022-12-24T03:42:50.911Z,27.00
2022-12-24T03:45:17.942Z,26.60
2022-12-24T03:47:45.057Z,28.08
2022-12-24T03:50:12.153Z,27.48
2022-12-24T03:52:39.338Z,28.23
2022-12-24T03:55:06.563Z,25.95
2022-12-24T03:57:33.581Z,27.92
2022-12-24T04:00:00.638Z,25.83
2022-12-24T04:02:27.776Z,25.65
2022-12-24T04:04:54.863Z,25.02
2022-12-24T04:07:21.897Z,24.70
2022-12-24T04:09:48.975Z,23.83
2022-12-24T04:12:16.072Z,25.05
2022-12-24T04:14:43.107Z,22.92
2022-12-24T04:17:10.205Z,22.55
2022-12-24T04:19:37.255Z,21.63
2022-12-24T04:22:04.325Z,22.50
2022-12-24T04:24:31.398Z,21.00
2022-12-24T04:26:58.392Z,19.05
2022-12-24T04:29:25.452Z,18.20
2022-12-24T04:31:52.621Z,16.13
2022-12-24T04:34:19.774Z,14.43
2022-12-24T04:36:46.843Z,14.57
2022-12-24T04:39:13.928Z,13.13
2022-12-24T04:41:40.961Z,13.85
2022-12-24T04:44:08.916Z,12.68
2022-12-24T04:46:36.038Z,12.05
2022-12-24T04:49:03.069Z,11.98
2022-12-24T04:51:30.308Z,11.05
2022-12-24T04:53:57.581Z,10.80
2022-12-24T04:56:26.223Z,9.20
2022-12-24T04:58:53.644Z,8.70
2022-12-24T05:01:22.238Z,7.88
2022-12-24T05:03:49.613Z,8.60
2022-12-24T05:06:17.916Z,8.18
2022-12-24T05:08:45.023Z,7.88
2022-12-24T05:11:14.325Z,8.30
2022-12-24T05:13:46.506Z,6.95
2022-12-24T05:16:15.293Z,6.85
2022-12-24T05:18:42.516Z,7.57
2022-12-24T05:21:11.058Z,6.90
2022-12-24T05:23:56.851Z,6.18
2022-12-24T05:26:29.933Z,6.88
2022-12-24T05:28:58.802Z,5.18
2022-12-24T05:31:26.729Z,6.25
2022-12-24T05:33:54.800Z,7.25
2022-12-24T05:36:22.831Z,6.55
2022-12-24T05:38:50.010Z,6.10
2022-12-24T05:41:17.267Z,6.65
2022-12-24T05:43:44.504Z,8.10
2022-12-24T05:46:12.980Z,5.85
2022-12-24T05:48:40.061Z,7.25
2022-12-24T05:51:08.311Z,6.55
2022-12-24T05:53:35.921Z,6.82
2022-12-24T05:56:06.743Z,5.97
2022-12-24T05:58:33.820Z,6.10
2022-12-24T06:01:02.203Z,6.55
2022-12-24T06:03:29.781Z,6.88
2022-12-24T06:06:01.447Z,7.40
2022-12-24T06:08:28.969Z,6.40
2022-12-24T06:10:56.945Z,5.88
2022-12-24T06:13:24.269Z,6.60
2022-12-24T06:15:51.869Z,6.88
2022-12-24T06:18:19.022Z,6.63
2022-12-24T06:20:46.272Z,5.88
2022-12-24T06:23:13.401Z,6.88
2022-12-24T06:25:40.584Z,5.95
2022-12-24T06:28:17.461Z,6.90
2022-12-24T06:30:48.490Z,7.13
2022-12-24T06:33:15.938Z,7.18
2022-12-24T06:35:43.052Z,5.95
2022-12-24T06:38:10.172Z,6.78
2022-12-24T06:40:39.398Z,7.32
2022-12-24T06:43:06.569Z,7.18
2022-12-24T06:45:33.763Z,6.68
2022-12-24T06:48:01.785Z,7.03
2022-12-24T06:50:29.035Z,6.47
2022-12-24T06:52:56.534Z,6.82
2022-12-24T06:55:23.770Z,7.55
2022-12-24T06:57:51.065Z,7.63
2022-12-24T07:00:18.413Z,8.20
2022-12-24T07:02:46.007Z,7.07
2022-12-24T07:05:13.892Z,8.52
2022-12-24T07:07:42.137Z,7.88
2022-12-24T07:10:11.655Z,8.40
2022-12-24T07:12:38.998Z,8.57
2022-12-24T07:15:06.476Z,9.27
2022-12-24T07:17:33.735Z,8.05
2022-12-24T07:20:00.903Z,7.03
2022-12-24T07:22:28.115Z,5.75
2022-12-24T07:24:55.232Z,6.80
2022-12-24T07:27:22.348Z,8.07
2022-12-24T07:29:49.578Z,7.80
2022-12-24T07:32:16.641Z,8.10
2022-12-24T07:34:43.736Z,8.20
2022-12-24T07:37:10.904Z,6.50
2022-12-24T07:39:38.110Z,7.55
2022-12-24T07:42:07.911Z,7.13
2022-12-24T07:44:35.372Z,7.63
2022-12-24T07:47:02.932Z,9.75
2022-12-24T07:49:30.283Z,7.80
2022-12-24T07:51:57.561Z,8.30
2022-12-24T07:54:24.679Z,8.88
2022-12-24T07:56:51.887Z,7.88
2022-12-24T07:59:19.063Z,9.07
2022-12-24T08:01:46.433Z,8.85
2022-12-24T08:04:13.855Z,9.10
2022-12-24T08:06:41.060Z,9.02
2022-12-24T08:09:08.166Z,9.90
2022-12-24T08:11:35.360Z,10.88
2022-12-24T08:14:02.574Z,10.15
2022-12-24T08:16:29.831Z,8.85
2022-12-24T08:18:57.046Z,9.48
2022-12-24T08:21:24.227Z,8.70
2022-12-24T08:23:51.506Z,8.85
2022-12-24T08:26:18.660Z,10.25
2022-12-24T08:28:45.821Z,9.48
2022-12-24T08:31:13.062Z,10.50
2022-12-24T08:33:40.343Z,9.98
2022-12-24T08:36:07.577Z,9.55
2022-12-24T08:38:34.644Z,9.98
2022-12-24T08:41:01.719Z,8.55
2022-12-24T08:43:29.308Z,10.00
2022-12-24T08:45:56.447Z,9.82
2022-12-24T08:48:23.530Z,9.85
2022-12-24T08:50:50.688Z,9.60
2022-12-24T08:53:17.864Z,8.30
2022-12-24T08:55:47.844Z,9.88
2022-12-24T08:58:19.131Z,8.50
2022-12-24T09:00:46.210Z,9.73
2022-12-24T09:03:18.426Z,8.13
2022-12-24T09:05:47.826Z,10.67
2022-12-24T09:08:14.942Z,8.38
2022-12-24T09:10:41.999Z,8.85
2022-12-24T09:13:09.060Z,8.23
2022-12-24T09:15:36.329Z,8.93
2022-12-24T09:18:03.545Z,8.93
2022-12-24T09:20:30.654Z,8.32
2022-12-24T09:22:57.699Z,8.25
2022-12-24T09:25:24.829Z,8.38
2022-12-24T09:27:51.882Z,8.38
2022-12-24T09:30:19.003Z,9.23
2022-12-24T09:32:46.092Z,7.50
2022-12-24T09:35:13.100Z,9.02
2022-12-24T09:37:40.216Z,8.30
2022-12-24T09:40:07.783Z,7.75
2022-12-24T09:42:42.162Z,7.05
2022-12-24T09:45:16.729Z,8.27
2022-12-24T09:47:52.458Z,7.78
2022-12-24T09:50:31.830Z,7.35
2022-12-24T09:53:01.258Z,7.82
2022-12-24T09:55:33.400Z,9.10
2022-12-24T09:58:02.959Z,8.68
2022-12-24T10:00:33.468Z,8.55
2022-12-24T10:03:01.368Z,9.95
2022-12-24T10:05:47.275Z,8.18
2022-12-24T10:08:20.597Z,8.18
2022-12-24T10:11:01.428Z,8.05
2022-12-24T10:13:37.771Z,8.10
2022-12-24T10:16:13.076Z,9.52
2022-12-24T10:18:49.818Z,8.65
2022-12-24T10:21:20.539Z,8.25
2022-12-24T10:24:13.918Z,9.55
2022-12-24T10:26:45.720Z,9.27
2022-12-24T10:29:16.227Z,9.60
2022-12-24T10:31:49.330Z,9.40
2022-12-24T10:34:20.385Z,9.82
2022-12-24T10:36:47.512Z,9.85
2022-12-24T10:39:22.292Z,9.90
